This is the latest recevied weather packets stored in our database for station/object AG1T-20. If no packets are shown the sender has not sent any weather packets the latest 1 day(s).
| Time | Temp. | Humidity | Pressure | Rain* | Wind** | Luminosity | Snow |
|---|---|---|---|---|---|---|---|
| 1836274378 | 18.33° C | 43% | 1019.5 hPa | 0 mm | 0 m/s | 0 W/m² | - |
| 1836274228 | 18.33° C | 42% | 1019.5 hPa | 0 mm | 0 m/s | 0 W/m² | - |
| 1778045405 | 12.78° C | 45% | 1013.4 hPa | 0 mm | 1.34 m/s, 324° | 0 W/m² | - |
| 1778044805 | 12.78° C | 46% | 1013.4 hPa | 0 mm | 0.89 m/s, 334° | 0 W/m² | - |
| 1778044205 | 11.11° C | 74% | 1013.4 hPa | 0 mm | 0 m/s | 0 W/m² | - |
| 1778043604 | 11.67° C | 71% | 1013.4 hPa | 0 mm | 0 m/s | 0 W/m² | - |
| 1778043004 | 11.11° C | 70% | 1012.9 hPa | 0 mm | 0 m/s | 0 W/m² | - |
| 1778042405 | 11.67° C | 70% | 1012.9 hPa | 0 mm | 0 m/s | 0 W/m² | - |
| 1778041805 | 11.67° C | 69% | 1012.9 hPa | 0 mm | 0.45 m/s, 125° | 0 W/m² | - |
| 1778041205 | 11.67° C | 70% | 1012.9 hPa | 0 mm | 0.45 m/s, 183° | 0 W/m² | - |
| 1778040604 | 11.67° C | 72% | 1012.9 hPa | 0 mm | 0 m/s | 0 W/m² | - |
| 1778040005 | 11.67° C | 69% | 1012.9 hPa | 0 mm | 0 m/s | 0 W/m² | - |
| 1778039404 | 11.67° C | 69% | 1012.2 hPa | 0 mm | 0 m/s | 0 W/m² | - |
| 1778038805 | 12.22° C | 70% | 1012.2 hPa | 0 mm | 0 m/s | 0 W/m² | - |
| 1778038207 | 12.22° C | 68% | 1012.2 hPa | 0 mm | 0.45 m/s, 127° | 0 W/m² | - |
| 1778037605 | 12.78° C | 67% | 1012.2 hPa | 0 mm | 0.45 m/s, 178° | 0 W/m² | - |
| 1778037005 | 12.78° C | 66% | 1012.2 hPa | 0 mm | 0.45 m/s, 234° | 0 W/m² | - |
| 1778036405 | 12.78° C | 68% | 1012.2 hPa | 0 mm | 0 m/s | 0 W/m² | - |
| 1778035804 | 12.78° C | 62% | 1011.1 hPa | 0 mm | 0 m/s | 0 W/m² | - |
| 1778035204 | 12.22° C | 63% | 1011.1 hPa | 0 mm | 0 m/s | 0 W/m² | - |
| 1778034604 | 12.22° C | 62% | 1011.1 hPa | 0 mm | 0 m/s | 2 W/m² | - |
| 1778034005 | 12.78° C | 62% | 1011.1 hPa | 0 mm | 0 m/s | 5 W/m² | - |
| 1778033404 | 13.33° C | 58% | 1011.1 hPa | 0 mm | 0 m/s | 8 W/m² | - |
| 1778032805 | 15° C | 53% | 1011.1 hPa | 0 mm | 0 m/s | 13 W/m² | - |
| 1778032205 | 17.78° C | 43% | 1011.1 hPa | 0 mm | 0 m/s | 17 W/m² | - |
* Rain latest hour (hover to see other rain measurements)
** Current wind speed in m/s (hover to see current wind gust speed)